Time;durP1;ratioP1;P1;durP2;ratioP2;P2;SDS_P1;SDS_P2;PMS_P1;PMS_P2;Temp;Humidity;BMP_temperature;BMP_pressure;BME280_temperature;BME280_humidity;BME280_pressure;Samples;Min_cycle;Max_cycle;Signal;HPM_P1;HPM_P2
2022/09/27 00:01:39;;;;;;;6.57;2.17;;;-18.90;99.90;;;;;;5078248;28;20220;-73
2022/09/27 00:04:05;;;;;;;4.27;1.93;;;-22.00;99.90;;;;;;5080187;28;20534;-75
2022/09/27 00:06:32;;;;;;;7.13;1.83;;;-25.30;99.90;;;;;;5084522;28;20201;-77
2022/09/27 00:08:59;;;;;;;3.63;1.67;;;-24.10;99.90;;;;;;5089536;28;20179;-75
2022/09/27 00:11:27;;;;;;;3.20;1.97;;;-25.40;99.90;;;;;;5079093;28;20185;-73
2022/09/27 00:13:55;;;;;;;7.53;1.57;;;-25.40;99.90;;;;;;5079080;28;20263;-72
2022/09/27 00:16:22;;;;;;;5.20;2.93;;;-26.40;99.90;;;;;;5084465;28;20214;-73
2022/09/27 00:18:48;;;;;;;3.30;1.17;;;-22.80;99.90;;;;;;5088825;28;20274;-74
2022/09/27 00:21:14;;;;;;;1.60;1.10;;;-24.90;99.90;;;;;;5081928;28;20243;-74
2022/09/27 00:23:40;;;;;;;2.90;1.23;;;-26.80;99.90;;;;;;5078981;28;20477;-71
2022/09/27 00:26:07;;;;;;;7.00;1.93;;;-23.80;99.90;;;;;;5084003;28;20191;-73
2022/09/27 00:28:33;;;;;;;1.40;1.17;;;-21.20;99.90;;;;;;5085326;28;20203;-73
2022/09/27 00:30:59;;;;;;;7.73;2.33;;;-22.50;99.90;;;;;;5081766;28;20628;-73
2022/09/27 00:33:26;;;;;;;5.37;1.20;;;-18.70;99.90;;;;;;5085422;28;20265;-71
2022/09/27 00:35:51;;;;;;;4.20;1.23;;;-22.30;99.90;;;;;;5082837;28;20204;-70
2022/09/27 00:38:17;;;;;;;1.30;1.20;;;-21.70;99.90;;;;;;5082826;28;20182;-71
2022/09/27 00:40:44;;;;;;;8.00;1.53;;;-20.40;99.90;;;;;;5083916;28;20200;-72
2022/09/27 00:43:19;;;;;;;2.10;1.10;;;-22.00;99.90;;;;;;5079470;28;20179;-72
2022/09/27 00:45:56;;;;;;;9.50;2.77;;;-23.60;99.90;;;;;;5084271;28;20182;-71
2022/09/27 00:48:26;;;;;;;3.93;1.03;;;-21.20;99.90;;;;;;5084526;28;20596;-70
2022/09/27 00:50:55;;;;;;;6.23;1.40;;;-22.80;99.90;;;;;;5084688;28;20232;-71
2022/09/27 00:53:29;;;;;;;3.27;1.07;;;-22.40;99.90;;;;;;5081693;28;20231;-71
2022/09/27 00:56:00;;;;;;;6.07;1.10;;;-26.80;99.90;;;;;;5081098;28;20277;-70
2022/09/27 00:58:49;;;;;;;0.97;0.80;;;-28.70;99.90;;;;;;5085057;28;20198;-73
2022/09/27 01:01:16;;;;;;;3.83;1.60;;;-29.00;99.90;;;;;;5087695;28;20221;-75
2022/09/27 01:04:06;;;;;;;2.60;1.10;;;-33.20;99.90;;;;;;5080440;28;20170;-70
2022/09/27 01:06:32;;;;;;;6.27;1.77;;;-27.40;99.90;;;;;;5079875;28;20190;-72
2022/09/27 01:08:58;;;;;;;7.57;1.20;;;-33.20;99.90;;;;;;5084382;28;20243;-72
2022/09/27 01:11:41;;;;;;;6.80;1.50;;;-22.20;99.90;;;;;;5079740;28;20793;-72
2022/09/27 01:14:31;;;;;;;1.80;1.10;;;-25.50;99.90;;;;;;5085215;28;20644;-74
2022/09/27 01:17:24;;;;;;;7.20;1.10;;;-27.70;99.90;;;;;;5077367;28;20179;-70
2022/09/27 01:20:24;;;;;;;1.60;1.03;;;-24.50;99.90;;;;;;5077589;28;20187;-76
2022/09/27 01:23:05;;;;;;;6.63;1.77;;;-23.70;99.90;;;;;;5081347;28;20239;-73
2022/09/27 01:25:39;;;;;;;1.60;0.90;;;-28.30;99.90;;;;;;5088059;28;20183;-72
2022/09/27 01:28:51;;;;;;;3.63;1.20;;;-33.50;99.90;;;;;;5081463;28;20181;-71
2022/09/27 01:31:47;;;;;;;3.63;1.13;;;-36.70;99.90;;;;;;5067627;28;20218;-77
2022/09/27 01:34:22;;;;;;;4.03;1.03;;;-40.00;99.90;;;;;;5077282;28;20174;-72
2022/09/27 01:37:18;;;;;;;3.73;0.97;;;-40.00;99.90;;;;;;5082128;28;20177;-73
2022/09/27 01:39:50;;;;;;;2.80;1.13;;;-40.00;99.90;;;;;;5083631;28;20182;-75
2022/09/27 01:42:54;;;;;;;6.83;1.20;;;-40.00;99.90;;;;;;5087297;28;20173;-71
2022/09/27 01:45:29;;;;;;;5.83;1.53;;;-40.00;99.90;;;;;;5080476;28;20174;-72
2022/09/27 01:48:03;;;;;;;1.17;0.97;;;-40.00;99.90;;;;;;5080898;28;20225;-72
2022/09/27 01:50:31;;;;;;;2.63;1.10;;;-32.80;99.90;;;;;;5077338;28;20605;-74
2022/09/27 01:53:08;;;;;;;4.87;1.63;;;-38.70;99.90;;;;;;5081258;28;20185;-70
2022/09/27 01:55:37;;;;;;;2.13;1.27;;;-36.00;99.90;;;;;;5083459;28;20176;-71
2022/09/27 01:58:14;;;;;;;1.60;0.83;;;-40.00;99.90;;;;;;5083200;28;20174;-76
2022/09/27 02:00:43;;;;;;;1.50;1.00;;;-40.00;99.90;;;;;;5078949;28;20233;-70
2022/09/27 02:03:17;;;;;;;4.70;0.73;;;-38.90;99.90;;;;;;5076650;28;20179;-72
2022/09/27 02:05:52;;;;;;;8.33;1.63;;;-37.90;99.90;;;;;;5082199;28;20469;-71
2022/09/27 02:08:59;;;;;;;4.80;1.03;;;-40.00;99.90;;;;;;5075837;28;20175;-76
2022/09/27 02:11:26;;;;;;;2.83;1.10;;;-40.00;99.90;;;;;;5080815;28;20222;-73
2022/09/27 02:14:03;;;;;;;5.00;1.00;;;-39.90;99.90;;;;;;5079118;28;20212;-71
2022/09/27 02:16:56;;;;;;;4.67;1.73;;;-40.00;99.90;;;;;;5076790;28;20583;-71
2022/09/27 02:19:31;;;;;;;2.30;1.00;;;-40.00;99.90;;;;;;5082443;28;20190;-70
2022/09/27 02:22:06;;;;;;;1.73;1.33;;;-36.40;99.90;;;;;;5076735;28;20231;-74
2022/09/27 02:24:40;;;;;;;2.30;1.10;;;-39.50;99.90;;;;;;5080175;28;20519;-70
2022/09/27 02:27:25;;;;;;;5.10;1.77;;;-36.60;99.90;;;;;;5086565;28;20176;-71
2022/09/27 02:30:02;;;;;;;5.43;1.13;;;-35.40;99.90;;;;;;5078781;28;20186;-73
2022/09/27 02:32:28;;;;;;;1.20;1.10;;;-37.90;99.90;;;;;;5075140;28;20185;-72
2022/09/27 02:34:56;;;;;;;2.23;1.17;;;-39.70;99.90;;;;;;5075734;28;20189;-72
2022/09/27 02:37:22;;;;;;;7.30;1.30;;;-40.00;99.90;;;;;;5079724;28;20183;-70
2022/09/27 02:39:48;;;;;;;3.50;1.13;;;-38.50;99.90;;;;;;5078860;28;20186;-73
2022/09/27 02:42:14;;;;;;;6.97;1.77;;;-40.00;99.90;;;;;;5080957;28;20182;-71
2022/09/27 02:44:41;;;;;;;3.63;1.20;;;-36.00;99.90;;;;;;5076959;28;20642;-74
2022/09/27 02:47:23;;;;;;;4.27;1.93;;;-33.40;99.90;;;;;;5082351;28;20207;-70
2022/09/27 02:50:00;;;;;;;3.23;1.60;;;-31.40;99.90;;;;;;5077268;28;20199;-70
2022/09/27 02:52:55;;;;;;;1.60;1.47;;;-32.70;99.90;;;;;;5075921;28;20201;-73
2022/09/27 02:55:50;;;;;;;8.03;2.47;;;-34.00;99.90;;;;;;5063718;28;20279;-70
2022/09/27 02:58:29;;;;;;;1.03;1.03;;;-33.70;99.90;;;;;;5081400;28;20206;-75
2022/09/27 03:01:01;;;;;;;2.17;1.27;;;-32.60;99.90;;;;;;5081617;28;20215;-73
2022/09/27 03:03:43;;;;;;;5.40;2.10;;;-37.00;99.90;;;;;;5081848;28;20260;-75
2022/09/27 03:06:16;;;;;;;4.03;2.17;;;-37.20;99.90;;;;;;5080471;28;20467;-77
2022/09/27 03:08:43;;;;;;;4.00;1.50;;;-37.00;99.90;;;;;;5082273;28;20442;-75
2022/09/27 03:11:09;;;;;;;1.47;1.20;;;-30.50;99.90;;;;;;5078793;28;20177;-71
2022/09/27 03:13:37;;;;;;;3.73;1.73;;;-33.10;99.90;;;;;;5075465;28;20611;-73
2022/09/27 03:16:05;;;;;;;5.77;1.60;;;-28.80;99.90;;;;;;5081326;28;20292;-72
2022/09/27 03:18:31;;;;;;;4.33;1.90;;;-31.40;99.90;;;;;;5075312;28;20196;-74
2022/09/27 03:20:57;;;;;;;5.20;1.93;;;-37.40;99.90;;;;;;5085197;28;20657;-73
2022/09/27 03:23:23;;;;;;;3.50;1.53;;;-38.80;99.90;;;;;;5078405;28;20177;-73
2022/09/27 03:25:49;;;;;;;5.87;1.30;;;-37.10;99.90;;;;;;5083061;28;20632;-73
2022/09/27 03:28:15;;;;;;;3.07;1.47;;;-33.20;99.90;;;;;;5076860;28;20265;-73
2022/09/27 03:30:43;;;;;;;7.40;2.80;;;-40.00;99.90;;;;;;5075235;28;20268;-70
2022/09/27 03:33:08;;;;;;;8.60;1.97;;;-38.40;99.90;;;;;;5080357;28;20194;-75
2022/09/27 03:35:35;;;;;;;4.40;1.57;;;-39.40;99.90;;;;;;5075263;28;20197;-73
2022/09/27 03:38:01;;;;;;;3.90;1.63;;;-36.70;99.90;;;;;;5081804;28;20189;-69
2022/09/27 03:40:27;;;;;;;2.00;1.43;;;-38.50;99.90;;;;;;5081509;28;20206;-70
2022/09/27 03:42:53;;;;;;;3.40;1.50;;;-40.00;99.90;;;;;;5075124;28;20659;-77
2022/09/27 03:45:19;;;;;;;4.80;1.40;;;-40.00;99.90;;;;;;5086980;28;20588;-76
2022/09/27 03:47:46;;;;;;;3.37;2.07;;;-40.00;99.90;;;;;;5082579;28;20177;-75
2022/09/27 03:50:13;;;;;;;4.70;1.53;;;-40.00;99.90;;;;;;5080448;28;20177;-72
2022/09/27 03:52:41;;;;;;;5.57;1.97;;;-40.00;99.90;;;;;;5080855;28;20185;-72
2022/09/27 03:55:08;;;;;;;7.03;1.40;;;-40.00;99.90;;;;;;5075276;28;20186;-73
2022/09/27 03:57:34;;;;;;;4.43;1.30;;;-40.00;99.90;;;;;;5077317;28;20189;-73
2022/09/27 03:59:59;;;;;;;1.87;1.57;;;-40.00;99.90;;;;;;5077920;28;20220;-72
2022/09/27 04:02:27;;;;;;;1.13;1.07;;;-40.00;99.90;;;;;;5073674;28;20228;-77
2022/09/27 04:04:53;;;;;;;2.97;1.07;;;-40.00;99.90;;;;;;5080406;28;20243;-72
2022/09/27 04:07:19;;;;;;;2.97;1.83;;;-40.00;99.90;;;;;;5074581;28;20534;-72
2022/09/27 04:09:45;;;;;;;4.27;2.07;;;-40.00;99.90;;;;;;5080141;28;20168;-74
2022/09/27 04:12:12;;;;;;;3.50;2.57;;;-40.00;99.90;;;;;;5073794;28;20180;-70
2022/09/27 04:14:38;;;;;;;5.10;2.53;;;-40.00;99.90;;;;;;5075026;28;20186;-74
2022/09/27 04:17:04;;;;;;;4.23;1.90;;;-40.00;99.90;;;;;;5082602;28;20243;-71
2022/09/27 04:19:29;;;;;;;6.77;1.77;;;-40.00;99.90;;;;;;5075044;28;20196;-76
2022/09/27 04:21:55;;;;;;;2.20;1.90;;;-40.00;99.90;;;;;;5077311;28;20217;-72
2022/09/27 04:24:21;;;;;;;4.40;2.07;;;-40.00;99.90;;;;;;5081434;28;20193;-72
2022/09/27 04:26:48;;;;;;;3.00;2.10;;;-40.00;99.90;;;;;;5076774;28;20193;-73
2022/09/27 04:29:15;;;;;;;4.07;2.57;;;-40.00;99.90;;;;;;5074817;28;20222;-71
2022/09/27 04:31:43;;;;;;;2.77;1.83;;;-40.00;99.90;;;;;;5079182;28;20204;-74
2022/09/27 04:34:09;;;;;;;3.97;2.83;;;-40.00;99.90;;;;;;5084431;28;20176;-75
2022/09/27 04:36:35;;;;;;;6.03;2.37;;;-40.00;99.90;;;;;;5074624;28;20189;-73
2022/09/27 04:39:06;;;;;;;3.77;2.50;;;-40.00;99.90;;;;;;5074816;28;20322;-75
2022/09/27 04:41:32;;;;;;;4.97;2.97;;;-40.00;99.90;;;;;;5079974;28;20239;-75
2022/09/27 04:44:01;;;;;;;9.80;3.83;;;-40.00;99.90;;;;;;5080018;28;20238;-71
2022/09/27 04:46:30;;;;;;;4.00;3.70;;;-40.00;99.90;;;;;;5078683;28;20180;-70
2022/09/27 04:49:00;;;;;;;7.23;3.97;;;-40.00;99.90;;;;;;5079384;28;20200;-70
2022/09/27 04:51:26;;;;;;;4.93;4.37;;;-40.00;99.90;;;;;;5073838;28;20218;-72
2022/09/27 04:53:52;;;;;;;6.73;4.43;;;-40.00;99.90;;;;;;5081477;28;20312;-69
2022/09/27 04:56:18;;;;;;;5.67;4.97;;;-40.00;99.90;;;;;;5080348;28;20272;-70
2022/09/27 04:58:44;;;;;;;5.70;4.93;;;-40.00;99.90;;;;;;5088849;28;20253;-70
2022/09/27 05:01:10;;;;;;;5.50;5.00;;;-40.00;99.90;;;;;;5084976;28;20215;-70
2022/09/27 05:03:36;;;;;;;6.10;4.70;;;-40.00;99.90;;;;;;5078394;28;20182;-72
2022/09/27 05:06:02;;;;;;;6.07;5.03;;;-40.00;99.90;;;;;;5078358;28;20246;-72
2022/09/27 05:08:28;;;;;;;6.73;4.30;;;-40.00;99.90;;;;;;5083000;28;20177;-70
2022/09/27 05:10:54;;;;;;;6.37;4.13;;;-40.00;99.90;;;;;;5077786;28;20188;-71
2022/09/27 05:13:20;;;;;;;6.47;4.50;;;-40.00;99.90;;;;;;5087662;28;20285;-72
2022/09/27 05:15:45;;;;;;;4.30;3.70;;;-40.00;99.90;;;;;;5085010;28;20218;-70
2022/09/27 05:18:11;;;;;;;3.90;3.60;;;-40.00;99.90;;;;;;5080289;28;20182;-72
2022/09/27 05:20:38;;;;;;;4.33;3.93;;;-40.00;99.90;;;;;;5077662;28;20209;-70
2022/09/27 05:23:04;;;;;;;9.17;4.17;;;-40.00;99.90;;;;;;5080897;28;20199;-70
2022/09/27 05:25:32;;;;;;;5.03;4.53;;;-40.00;99.90;;;;;;5082330;28;20234;-74
2022/09/27 05:27:58;;;;;;;5.90;4.03;;;-40.00;99.90;;;;;;5079315;28;20177;-70
2022/09/27 05:30:26;;;;;;;4.53;4.10;;;-40.00;99.90;;;;;;5078702;28;20183;-70
2022/09/27 05:32:52;;;;;;;5.37;4.87;;;-40.00;99.90;;;;;;5077489;28;20195;-70
2022/09/27 05:35:18;;;;;;;4.50;4.17;;;-40.00;99.90;;;;;;5083981;28;20182;-70
2022/09/27 05:37:56;;;;;;;5.90;4.40;;;-40.00;99.90;;;;;;5085457;28;20184;-74
2022/09/27 05:40:23;;;;;;;7.77;3.93;;;-40.00;99.90;;;;;;5079175;28;20252;-69
2022/09/27 05:42:52;;;;;;;7.33;4.50;;;-40.00;99.90;;;;;;5083248;28;20182;-70
2022/09/27 05:45:20;;;;;;;4.60;4.10;;;-40.00;99.90;;;;;;5075351;28;20463;-72
2022/09/27 05:47:57;;;;;;;5.73;5.07;;;-40.00;99.90;;;;;;5081060;28;20695;-72
2022/09/27 05:50:24;;;;;;;5.43;4.50;;;-40.00;99.90;;;;;;5090675;28;20212;-69
2022/09/27 05:52:50;;;;;;;3.77;3.40;;;-40.00;99.90;;;;;;5083227;28;20187;-71
2022/09/27 05:55:17;;;;;;;3.60;3.40;;;-40.00;99.90;;;;;;5077463;28;20191;-71
2022/09/27 05:57:56;;;;;;;4.20;3.80;;;-40.00;99.90;;;;;;5081451;28;20184;-69
2022/09/27 06:00:22;;;;;;;4.00;3.70;;;-40.00;99.90;;;;;;5080922;28;20491;-68
2022/09/27 06:02:56;;;;;;;4.17;3.87;;;-40.00;99.90;;;;;;5083494;28;20198;-71
2022/09/27 06:05:22;;;;;;;7.03;4.17;;;-40.00;99.90;;;;;;5078900;28;20487;-71
2022/09/27 06:07:48;;;;;;;3.73;3.43;;;-40.00;99.90;;;;;;5076997;28;20525;-69
2022/09/27 06:10:15;;;;;;;6.13;3.90;;;-40.00;99.90;;;;;;5076762;28;20186;-68
2022/09/27 06:12:41;;;;;;;4.23;3.00;;;-40.00;99.90;;;;;;5076658;28;20212;-69
2022/09/27 06:15:07;;;;;;;4.60;3.53;;;-40.00;99.90;;;;;;5079736;28;20189;-69
2022/09/27 06:17:34;;;;;;;10.50;3.43;;;-40.00;99.90;;;;;;5078535;28;20183;-70
2022/09/27 06:20:00;;;;;;;4.27;3.80;;;-40.00;99.90;;;;;;5082918;28;20183;-71
2022/09/27 06:22:25;;;;;;;3.83;3.20;;;-40.00;99.90;;;;;;5086100;28;20225;-68
2022/09/27 06:24:51;;;;;;;3.30;3.10;;;-40.00;99.90;;;;;;5084928;28;20546;-70
2022/09/27 06:27:17;;;;;;;4.77;3.70;;;-40.00;99.90;;;;;;5080964;28;20183;-68
2022/09/27 06:29:43;;;;;;;5.03;3.10;;;-40.00;99.90;;;;;;5075860;28;20179;-69
2022/09/27 06:32:10;;;;;;;5.73;3.87;;;-40.00;99.90;;;;;;5083267;28;20271;-69
2022/09/27 06:34:36;;;;;;;7.20;2.93;;;-40.00;99.90;;;;;;5088181;28;20622;-70
2022/09/27 06:37:01;;;;;;;4.30;3.90;;;-40.00;99.90;;;;;;5080047;28;20198;-69
2022/09/27 06:39:27;;;;;;;3.10;2.90;;;-40.00;99.90;;;;;;5081488;28;20180;-69
2022/09/27 06:41:56;;;;;;;6.00;3.37;;;-40.00;99.90;;;;;;5076207;28;20569;-69
2022/09/27 06:44:23;;;;;;;4.80;3.63;;;-40.00;99.90;;;;;;5081586;28;20183;-70
2022/09/27 06:46:53;;;;;;;6.00;3.60;;;-40.00;99.90;;;;;;5085846;28;20191;-71
2022/09/27 06:49:21;;;;;;;6.40;5.00;;;-40.00;99.90;;;;;;5082176;28;20244;-68
2022/09/27 06:51:47;;;;;;;3.57;3.13;;;-40.00;99.90;;;;;;5082130;28;20324;-69
2022/09/27 06:54:14;;;;;;;4.77;3.90;;;-40.00;99.90;;;;;;5080614;28;20184;-68
2022/09/27 06:56:39;;;;;;;6.07;4.30;;;-40.00;99.90;;;;;;5077027;28;20268;-68
2022/09/27 07:01:51;;;;;;;6.40;4.90;;;-40.00;99.90;;;;;;5082377;28;20236;-70
2022/09/27 07:04:17;;;;;;;4.80;4.40;;;-40.00;99.90;;;;;;5082073;28;20208;-73
2022/09/27 07:06:43;;;;;;;6.47;3.87;;;-40.00;99.90;;;;;;5075966;28;20179;-74
2022/09/27 07:09:09;;;;;;;6.07;4.97;;;-40.00;99.90;;;;;;5075468;28;20613;-68
2022/09/27 07:11:35;;;;;;;10.00;5.33;;;-40.00;99.90;;;;;;5075687;28;20176;-70
2022/09/27 07:14:03;;;;;;;5.30;4.80;;;-40.00;99.90;;;;;;5075416;28;20247;-76
2022/09/27 07:16:30;;;;;;;8.20;4.73;;;-40.00;99.90;;;;;;5081198;28;20187;-71
2022/09/27 07:18:59;;;;;;;6.97;5.70;;;-40.00;99.90;;;;;;5079759;28;20183;-69
2022/09/27 07:21:25;;;;;;;6.33;4.73;;;-40.00;99.90;;;;;;5075353;28;20210;-68
2022/09/27 07:23:51;;;;;;;5.87;5.27;;;-40.00;99.90;;;;;;5080589;28;20184;-69
2022/09/27 07:26:17;;;;;;;5.53;5.00;;;-40.00;99.90;;;;;;5075681;28;20240;-71
2022/09/27 07:28:43;;;;;;;9.80;6.37;;;-40.00;99.90;;;;;;5077126;28;20191;-69
2022/09/27 07:31:10;;;;;;;7.70;4.40;;;-40.00;99.90;;;;;;5077421;28;20204;-74
2022/09/27 07:33:36;;;;;;;5.00;4.60;;;-40.00;99.90;;;;;;5075979;28;20184;-69
2022/09/27 07:36:12;;;;;;;5.53;4.73;;;-40.00;99.90;;;;;;5082124;28;20549;-69
2022/09/27 07:38:37;;;;;;;5.87;4.60;;;-40.00;99.90;;;;;;5080298;28;20184;-76
2022/09/27 07:41:08;;;;;;;8.33;5.50;;;-40.00;99.90;;;;;;5075382;28;20278;-73
2022/09/27 07:43:34;;;;;;;8.57;4.90;;;-40.00;99.90;;;;;;5082105;28;20176;-70
2022/09/27 07:46:00;;;;;;;9.47;4.63;;;-40.00;99.90;;;;;;5075575;28;20404;-68
2022/09/27 07:48:27;;;;;;;4.77;4.37;;;-40.00;99.90;;;;;;5075228;28;20234;-71
2022/09/27 07:50:52;;;;;;;5.97;4.60;;;-40.00;99.90;;;;;;5076782;28;20225;-71
2022/09/27 07:53:18;;;;;;;7.07;5.23;;;-40.00;99.90;;;;;;5075272;28;20599;-70
2022/09/27 07:55:51;;;;;;;5.63;5.00;;;-40.00;99.90;;;;;;5076941;28;20184;-69
2022/09/27 07:58:17;;;;;;;8.57;5.30;;;-40.00;99.90;;;;;;5082450;28;20624;-71
2022/09/27 08:00:43;;;;;;;8.50;5.93;;;-40.00;99.90;;;;;;5082623;28;20210;-73
2022/09/27 08:03:14;;;;;;;7.93;5.57;;;-40.00;99.90;;;;;;5075423;28;20587;-70
2022/09/27 08:05:41;;;;;;;5.20;4.23;;;-40.00;99.90;;;;;;5074993;28;20190;-69
2022/09/27 08:08:08;;;;;;;4.57;4.27;;;-40.00;99.90;;;;;;5077743;28;20180;-69
2022/09/27 08:10:34;;;;;;;4.60;4.20;;;-40.00;99.90;;;;;;5082424;28;20237;-68
2022/09/27 08:13:04;;;;;;;5.67;4.13;;;-40.00;99.90;;;;;;5074897;28;20240;-69
2022/09/27 08:15:31;;;;;;;5.00;4.50;;;-40.00;99.90;;;;;;5081362;28;20187;-68
2022/09/27 08:17:56;;;;;;;7.17;4.50;;;-40.00;99.90;;;;;;5087075;28;20218;-70
2022/09/27 08:20:22;;;;;;;4.37;3.97;;;-40.00;99.90;;;;;;5075097;28;20642;-70
2022/09/27 08:22:48;;;;;;;7.37;4.07;;;-40.00;99.90;;;;;;5078658;28;20203;-71
2022/09/27 08:25:14;;;;;;;4.90;3.17;;;-40.00;99.90;;;;;;5075169;28;20178;-69
2022/09/27 08:27:41;;;;;;;9.03;4.50;;;-40.00;99.90;;;;;;5082604;28;20522;-70
2022/09/27 08:30:07;;;;;;;6.97;6.30;;;-40.00;99.90;;;;;;5084889;28;20225;-72
2022/09/27 08:32:33;;;;;;;11.30;4.90;;;-40.00;99.90;;;;;;5084622;28;20193;-70
2022/09/27 08:34:59;;;;;;;3.30;3.00;;;-40.00;99.90;;;;;;5084555;28;20208;-69
2022/09/27 08:37:25;;;;;;;7.63;4.40;;;-40.00;99.90;;;;;;5078191;28;20604;-69
2022/09/27 08:39:51;;;;;;;6.10;4.83;;;-40.00;99.90;;;;;;5085387;28;20240;-68
2022/09/27 08:42:30;;;;;;;4.03;3.63;;;-40.00;99.90;;;;;;5087617;28;20310;-69
2022/09/27 08:45:16;;;;;;;4.53;3.47;;;-40.00;99.90;;;;;;5081434;28;20178;-69
2022/09/27 08:47:47;;;;;;;3.83;3.40;;;-40.00;99.90;;;;;;5086315;28;20189;-69
2022/09/27 08:50:44;;;;;;;3.07;2.77;;;-40.00;99.90;;;;;;5085329;28;20174;-70
2022/09/27 08:53:13;;;;;;;3.20;2.93;;;-40.00;99.90;;;;;;5078215;28;20238;-69
2022/09/27 08:55:54;;;;;;;2.10;2.00;;;-40.00;99.90;;;;;;5078129;28;20577;-69
2022/09/27 08:58:35;;;;;;;2.43;2.33;;;-40.00;99.90;;;;;;5079640;28;20181;-69
2022/09/27 09:01:15;;;;;;;5.30;3.00;;;-40.00;99.90;;;;;;5082998;28;20332;-71
2022/09/27 09:03:54;;;;;;;4.93;2.83;;;-40.00;99.90;;;;;;5081313;28;20199;-69
2022/09/27 09:06:25;;;;;;;3.70;2.60;;;-40.00;99.90;;;;;;5082607;28;20207;-69
2022/09/27 09:09:12;;;;;;;7.13;2.40;;;-40.00;99.90;;;;;;5077998;28;20186;-69
2022/09/27 09:15:10;;;;;;;3.47;3.07;;;-40.00;99.90;;;;;;5074575;28;20198;-70
2022/09/27 09:17:39;;;;;;;3.30;2.53;;;-40.00;99.90;;;;;;5085079;28;20207;-71
2022/09/27 09:20:35;;;;;;;3.50;2.10;;;-40.00;99.90;;;;;;5082276;28;20181;-73
2022/09/27 09:23:18;;;;;;;1.97;1.87;;;-40.00;99.90;;;;;;5086177;28;20254;-68
2022/09/27 09:26:04;;;;;;;2.00;1.87;;;-40.00;99.90;;;;;;5082974;28;20212;-71
2022/09/27 09:28:49;;;;;;;4.20;1.90;;;-40.00;99.90;;;;;;5078991;28;20259;-71
2022/09/27 09:31:34;;;;;;;5.67;2.43;;;-40.00;99.90;;;;;;5077851;28;20192;-71
2022/09/27 09:34:26;;;;;;;2.50;1.77;;;-40.00;99.90;;;;;;5082058;28;20182;-69
2022/09/27 09:36:57;;;;;;;4.00;1.80;;;-40.00;99.90;;;;;;5082878;28;20317;-69
2022/09/27 09:39:50;;;;;;;2.80;2.57;;;-40.00;99.90;;;;;;5084915;28;20186;-69
2022/09/27 09:42:25;;;;;;;1.80;1.70;;;-40.00;99.90;;;;;;5077446;28;20297;-69
2022/09/27 09:45:19;;;;;;;3.97;3.53;;;-40.00;99.90;;;;;;5077494;28;20185;-70
2022/09/27 09:47:53;;;;;;;2.63;2.43;;;-40.00;99.90;;;;;;5087202;28;20228;-68
2022/09/27 09:50:49;;;;;;;3.77;2.43;;;-40.00;99.90;;;;;;5083829;28;20194;-69
2022/09/27 09:53:24;;;;;;;4.60;1.90;;;-40.00;99.90;;;;;;5083112;28;20203;-69
2022/09/27 09:56:03;;;;;;;4.60;2.53;;;-40.00;99.90;;;;;;5077329;28;20178;-69
2022/09/27 09:58:45;;;;;;;3.17;1.80;;;-40.00;99.90;;;;;;5086524;28;20210;-73
2022/09/27 10:01:26;;;;;;;2.03;1.93;;;-40.00;99.90;;;;;;5090539;28;20244;-69
2022/09/27 10:03:55;;;;;;;3.93;2.23;;;-40.00;99.90;;;;;;5084350;28;20175;-74
2022/09/27 10:06:22;;;;;;;7.97;2.90;;;-40.00;99.90;;;;;;5076875;28;20184;-68
2022/09/27 10:08:52;;;;;;;5.73;2.43;;;-40.00;99.90;;;;;;5077910;28;20205;-68
2022/09/27 10:11:38;;;;;;;3.13;2.63;;;-40.00;99.90;;;;;;5079280;28;20187;-71
2022/09/27 10:14:10;;;;;;;4.97;2.93;;;-40.00;99.90;;;;;;5082956;28;20225;-69
2022/09/27 10:16:38;;;;;;;5.63;2.50;;;-40.00;99.90;;;;;;5086999;28;20189;-71
2022/09/27 10:19:05;;;;;;;6.07;3.03;;;-40.00;99.90;;;;;;5080716;28;20213;-69
2022/09/27 10:21:33;;;;;;;11.57;3.83;;;-40.00;99.90;;;;;;5080246;28;20234;-67
2022/09/27 10:24:14;;;;;;;2.87;2.33;;;-40.00;99.90;;;;;;5075929;28;20236;-72
2022/09/27 10:26:42;;;;;;;7.60;3.03;;;-40.00;99.90;;;;;;5076855;28;20175;-68
2022/09/27 10:29:16;;;;;;;5.23;2.50;;;-40.00;99.90;;;;;;5081471;28;20178;-67
2022/09/27 10:31:46;;;;;;;3.40;2.33;;;-40.00;99.90;;;;;;5083236;28;20190;-69
2022/09/27 10:34:34;;;;;;;6.97;3.47;;;-40.00;99.90;;;;;;5083404;28;20249;-68
2022/09/27 10:37:03;;;;;;;11.10;2.83;;;-40.00;99.90;;;;;;5083123;28;20510;-67
2022/09/27 10:39:29;;;;;;;13.20;5.33;;;-40.00;99.90;;;;;;5076447;28;20179;-72
2022/09/27 10:41:55;;;;;;;8.27;4.50;;;-40.00;99.90;;;;;;5076693;28;20211;-68
2022/09/27 10:44:31;;;;;;;12.60;3.57;;;-40.00;99.90;;;;;;5076079;28;20184;-71
2022/09/27 10:47:21;;;;;;;9.97;3.00;;;-40.00;99.90;;;;;;5081426;28;20167;-71
2022/09/27 10:49:51;;;;;;;7.17;3.83;;;-40.00;99.90;;;;;;5083125;28;20172;-68
2022/09/27 10:52:18;;;;;;;4.33;2.50;;;-40.00;99.90;;;;;;5085885;28;20274;-69
2022/09/27 10:54:59;;;;;;;6.07;3.10;;;-40.00;99.90;;;;;;5076183;28;20261;-66
2022/09/27 10:57:27;;;;;;;6.87;3.27;;;-40.00;99.90;;;;;;5076069;28;20178;-67
2022/09/27 11:00:23;;;;;;;5.03;3.27;;;-40.00;99.90;;;;;;5076146;28;20593;-69
2022/09/27 11:02:55;;;;;;;7.07;3.70;;;-40.00;99.90;;;;;;5082046;28;20195;-68
2022/09/27 11:05:26;;;;;;;9.23;2.47;;;-40.00;99.90;;;;;;5079956;28;20598;-70
2022/09/27 11:07:57;;;;;;;10.37;3.73;;;-40.00;99.90;;;;;;5082250;28;20179;-70
2022/09/27 11:10:35;;;;;;;4.93;3.97;;;-40.00;99.90;;;;;;5080733;28;20528;-67
2022/09/27 11:13:11;;;;;;;6.10;2.90;;;-40.00;99.90;;;;;;5079268;28;20657;-67
2022/09/27 11:16:18;;;;;;;7.33;4.23;;;-40.00;99.90;;;;;;5079610;28;20198;-68
2022/09/27 11:19:17;;;;;;;4.20;1.90;;;-40.00;99.90;;;;;;5079327;28;20183;-68
2022/09/27 11:21:50;;;;;;;5.27;1.77;;;-40.00;99.90;;;;;;5075584;28;20217;-67
2022/09/27 11:24:37;;;;;;;6.23;1.63;;;-40.00;99.90;;;;;;5074828;28;20179;-65
2022/09/27 11:27:24;;;;;;;6.53;1.73;;;-40.00;99.90;;;;;;5075692;28;20472;-70
2022/09/27 11:30:02;;;;;;;1.37;1.00;;;-40.00;99.90;;;;;;5081935;28;20206;-70
2022/09/27 11:32:54;;;;;;;2.90;1.00;;;-40.00;99.90;;;;;;5079288;28;20181;-75
2022/09/27 11:35:45;;;;;;;2.20;1.07;;;-40.00;99.90;;;;;;5072347;28;20195;-71
2022/09/27 11:38:23;;;;;;;6.03;1.37;;;-40.00;99.90;;;;;;5080858;28;20175;-68
2022/09/27 11:41:02;;;;;;;0.63;0.53;;;-40.00;99.90;;;;;;5080177;28;20564;-69
2022/09/27 11:43:44;;;;;;;1.00;0.80;;;-40.00;99.90;;;;;;5078605;28;20529;-69
2022/09/27 11:46:16;;;;;;;2.43;1.30;;;-40.00;99.90;;;;;;5080508;28;20182;-66
2022/09/27 11:49:01;;;;;;;1.10;0.70;;;-40.00;99.90;;;;;;5082977;28;20229;-68
2022/09/27 11:51:36;;;;;;;5.47;1.73;;;-40.00;99.90;;;;;;5085214;28;20187;-70
2022/09/27 11:54:12;;;;;;;6.57;1.00;;;-40.00;99.90;;;;;;5078861;28;20253;-68
2022/09/27 11:56:51;;;;;;;6.40;1.10;;;-40.00;99.90;;;;;;5079911;28;20478;-70
2022/09/27 11:59:53;;;;;;;5.03;0.80;;;-40.00;99.90;;;;;;5073973;28;20493;-69
2022/09/27 12:02:30;;;;;;;1.70;0.70;;;-40.00;99.90;;;;;;5052562;28;20223;-74
2022/09/27 12:05:01;;;;;;;1.80;0.87;;;-40.00;99.90;;;;;;5081943;28;20190;-69
2022/09/27 12:07:44;;;;;;;0.93;0.77;;;-40.00;99.90;;;;;;5079794;28;20589;-75
2022/09/27 12:10:15;;;;;;;3.07;1.20;;;-40.00;99.90;;;;;;5079116;28;20182;-74
2022/09/27 12:12:44;;;;;;;2.63;1.13;;;-40.00;99.90;;;;;;5073631;28;20199;-76
2022/09/27 12:15:23;;;;;;;4.37;1.20;;;-40.00;99.90;;;;;;5075036;28;20550;-73
2022/09/27 12:17:54;;;;;;;2.23;1.00;;;-40.00;99.90;;;;;;5082671;28;20178;-70
2022/09/27 12:20:41;;;;;;;7.97;1.67;;;-40.00;99.90;;;;;;5080464;28;20186;-68
2022/09/27 12:23:14;;;;;;;4.67;1.50;;;-40.00;99.90;;;;;;5078320;28;20261;-74
2022/09/27 12:25:41;;;;;;;0.83;0.80;;;-40.00;99.90;;;;;;5074923;28;20202;-72
2022/09/27 12:28:19;;;;;;;3.77;1.87;;;-40.00;99.90;;;;;;5077592;28;20178;-68
2022/09/27 12:30:53;;;;;;;9.23;1.40;;;-40.00;99.90;;;;;;5081908;28;20184;-68
2022/09/27 12:33:31;;;;;;;3.80;0.90;;;-40.00;99.90;;;;;;5078085;28;20205;-71
2022/09/27 12:36:05;;;;;;;9.67;1.87;;;-40.00;99.10;;;;;;5078702;28;20227;-74
2022/09/27 12:39:10;;;;;;;4.30;0.90;;;-40.00;96.30;;;;;;5074197;28;20187;-70
2022/09/27 12:41:40;;;;;;;3.33;1.37;;;-40.00;96.50;;;;;;5065633;28;20559;-70
2022/09/27 12:44:09;;;;;;;4.73;1.00;;;-40.00;96.60;;;;;;5075053;28;20540;-70
2022/09/27 12:46:51;;;;;;;5.07;1.30;;;-40.00;94.00;;;;;;5078983;28;20171;-67
2022/09/27 12:49:24;;;;;;;4.73;1.73;;;-40.00;92.70;;;;;;5077259;28;20175;-70
2022/09/27 12:52:07;;;;;;;1.67;1.00;;;-40.00;93.90;;;;;;5078892;28;20174;-75
2022/09/27 12:54:55;;;;;;;2.93;0.80;;;-40.00;93.60;;;;;;5080572;28;20187;-70
2022/09/27 12:57:29;;;;;;;4.60;1.63;;;-40.00;96.20;;;;;;5074290;28;20187;-69
2022/09/27 13:00:06;;;;;;;4.53;1.50;;;-40.00;98.60;;;;;;5074367;28;20499;-73
2022/09/27 13:02:48;;;;;;;2.23;1.87;;;-40.00;99.90;;;;;;5079330;28;20213;-68
2022/09/27 13:05:48;;;;;;;4.97;1.43;;;-40.00;99.90;;;;;;5074838;28;20183;-70
2022/09/27 13:08:40;;;;;;;4.17;1.87;;;-40.00;99.90;;;;;;5078527;28;20190;-70
2022/09/27 13:11:28;;;;;;;3.57;1.20;;;-40.00;99.90;;;;;;5080203;28;21005;-69